Time;durP1;ratioP1;P1;durP2;ratioP2;P2;SDS_P1;SDS_P2;PMS_P1;PMS_P2;Temp;Humidity;BMP_temperature;BMP_pressure;BME280_temperature;BME280_humidity;BME280_pressure;Samples;Min_cycle;Max_cycle;Signal;HPM_P1;HPM_P2
2022/09/22 00:02:14;;;;;;;4.40;0.43;;;;;;;5.17;100.00;102806.63;10413646;28;20080;-76
2022/09/22 00:07:16;;;;;;;0.00;0.00;;;;;;;5.10;100.00;102800.94;10412983;28;20045;-77
2022/09/22 00:12:17;;;;;;;0.40;0.40;;;;;;;5.04;100.00;102809.88;10416164;28;20045;-76
2022/09/22 00:17:19;;;;;;;0.00;0.00;;;;;;;5.04;100.00;102799.66;10421383;28;20124;-77
2022/09/22 00:22:21;;;;;;;0.00;0.00;;;;;;;5.01;100.00;102794.34;10419322;28;20069;-76
2022/09/22 00:27:24;;;;;;;0.25;0.20;;;;;;;4.95;100.00;102798.97;10421692;28;20091;-76
2022/09/22 00:32:26;;;;;;;0.13;0.10;;;;;;;4.79;100.00;102790.84;10421307;28;20120;-76
2022/09/22 00:37:28;;;;;;;0.20;0.20;;;;;;;4.75;100.00;102788.03;10419586;28;20417;-76
2022/09/22 00:42:29;;;;;;;0.00;0.00;;;;;;;4.59;100.00;102787.56;10421124;28;20049;-76
2022/09/22 00:47:42;;;;;;;0.10;0.10;;;;;;;4.65;100.00;102788.09;10420353;28;20120;-76
2022/09/22 00:52:49;;;;;;;0.00;0.00;;;;;;;4.60;100.00;102789.34;10417557;28;20049;-77
2022/09/22 00:57:52;;;;;;;0.20;0.20;;;;;;;4.47;100.00;102782.34;10419970;28;20037;-76
2022/09/22 01:02:56;;;;;;;1.00;0.55;;;;;;;4.57;100.00;102778.91;10423767;28;20687;-76
2022/09/22 01:07:59;;;;;;;0.77;0.52;;;;;;;4.47;100.00;102781.47;10419979;28;20143;-76
2022/09/22 01:13:26;;;;;;;0.28;0.28;;;;;;;4.40;100.00;102780.97;10418766;28;20072;-76
2022/09/22 01:18:54;;;;;;;0.22;0.13;;;;;;;4.23;100.00;102786.34;10433283;28;20120;-76
2022/09/22 01:24:33;;;;;;;0.05;0.05;;;;;;;4.17;100.00;102770.56;10423021;28;20140;-76
2022/09/22 01:29:44;;;;;;;0.90;0.52;;;;;;;4.12;100.00;102765.06;10418347;28;20050;-76
2022/09/22 01:34:55;;;;;;;0.00;0.00;;;;;;;4.04;100.00;102769.56;10421080;28;20041;-77
2022/09/22 01:40:03;;;;;;;0.10;0.10;;;;;;;4.17;100.00;102771.44;10433757;28;20087;-76
2022/09/22 01:45:08;;;;;;;0.00;0.00;;;;;;;4.05;100.00;102770.44;10436883;28;20053;-77
2022/09/22 01:50:22;;;;;;;0.10;0.10;;;;;;;3.96;100.00;102760.38;10413543;28;20047;-77
2022/09/22 01:55:28;;;;;;;0.95;0.28;;;;;;;3.95;100.00;102758.59;10415572;28;20132;-77
2022/09/22 02:00:31;;;;;;;0.00;0.00;;;;;;;3.98;100.00;102758.84;10414596;28;20046;-77
2022/09/22 02:05:52;;;;;;;0.08;0.08;;;;;;;4.03;100.00;102752.47;10400401;28;20045;-76
2022/09/22 02:10:54;;;;;;;;;;;;;;;3.91;100.00;102748.91;10405459;28;20049;-76
2022/09/22 02:15:59;;;;;;;0.10;0.10;;;;;;;3.82;100.00;102749.00;10399889;28;20332;-77
2022/09/22 02:21:02;;;;;;;0.13;0.13;;;;;;;3.80;100.00;102743.81;10416174;28;20072;-76
2022/09/22 02:26:05;;;;;;;0.00;0.00;;;;;;;3.77;100.00;102733.34;10416598;28;20046;-76
2022/09/22 02:31:08;;;;;;;0.17;0.17;;;;;;;3.80;100.00;102732.69;10416321;28;20045;-76
2022/09/22 02:36:41;;;;;;;0.08;0.08;;;;;;;3.85;100.00;102735.63;10407497;28;20041;-76
2022/09/22 02:42:05;;;;;;;0.10;0.10;;;;;;;3.74;100.00;102728.00;10414721;28;20061;-76
2022/09/22 02:47:12;;;;;;;0.43;0.40;;;;;;;3.70;100.00;102728.50;10398522;28;20416;-76
2022/09/22 02:52:13;;;;;;;0.00;0.00;;;;;;;3.59;100.00;102721.63;10414305;28;20639;-76
2022/09/22 02:57:15;;;;;;;0.50;0.35;;;;;;;3.66;100.00;102734.13;10415372;28;20049;-76
2022/09/22 03:02:16;;;;;;;0.32;0.15;;;;;;;3.63;100.00;102728.75;10415193;28;20519;-76
2022/09/22 03:07:18;;;;;;;0.47;0.40;;;;;;;3.47;100.00;102724.91;10413955;28;20053;-76
2022/09/22 03:12:20;;;;;;;0.00;0.00;;;;;;;3.53;100.00;102721.09;10416416;28;20037;-76
2022/09/22 03:17:23;;;;;;;0.15;0.00;;;;;;;3.53;100.00;102726.22;10414713;28;20080;-76
2022/09/22 03:22:25;;;;;;;0.10;0.05;;;;;;;3.56;100.00;102721.34;10414470;28;20092;-76
2022/09/22 03:27:26;;;;;;;0.00;0.00;;;;;;;3.58;100.00;102719.81;10413286;28;20045;-77
2022/09/22 03:32:28;;;;;;;0.00;0.00;;;;;;;3.47;100.00;102707.06;10415378;28;20140;-77
2022/09/22 03:37:36;;;;;;;0.52;0.35;;;;;;;3.39;100.00;102710.63;10427656;28;20049;-76
2022/09/22 03:42:38;;;;;;;0.10;0.10;;;;;;;3.37;100.00;102704.53;10414960;28;20053;-76
2022/09/22 03:47:39;;;;;;;0.00;0.00;;;;;;;3.37;100.00;102701.06;10399602;28;20092;-76
2022/09/22 03:52:42;;;;;;;0.00;0.00;;;;;;;3.33;100.00;102695.75;10405174;28;20091;-76
2022/09/22 03:57:44;;;;;;;0.00;0.00;;;;;;;3.27;100.00;102696.88;10422654;28;20091;-76
2022/09/22 04:02:45;;;;;;;0.08;0.08;;;;;;;3.38;100.00;102696.13;10422275;28;20516;-76
2022/09/22 04:07:47;;;;;;;0.10;0.10;;;;;;;3.30;100.00;102697.13;10421854;28;20041;-77
2022/09/22 04:12:49;;;;;;;0.00;0.00;;;;;;;3.26;100.00;102689.97;10422574;28;20057;-77
2022/09/22 04:17:50;;;;;;;0.00;0.00;;;;;;;3.28;100.00;102689.34;10410067;28;20680;-76
2022/09/22 04:22:52;;;;;;;2.85;1.55;;;;;;;3.13;100.00;102686.41;10409547;28;20516;-76
2022/09/22 04:27:53;;;;;;;0.30;0.15;;;;;;;3.12;100.00;102682.06;10412490;28;20088;-76
2022/09/22 04:32:55;;;;;;;0.08;0.08;;;;;;;3.07;100.00;102688.44;10433637;28;20455;-76
2022/09/22 04:37:57;;;;;;;0.00;0.00;;;;;;;3.12;100.00;102692.25;10442611;28;20467;-77
2022/09/22 04:42:58;;;;;;;0.00;0.00;;;;;;;3.06;100.00;102681.56;10432336;28;20476;-76
2022/09/22 04:48:03;;;;;;;0.00;0.00;;;;;;;3.03;100.00;102680.41;10394148;28;20128;-76
2022/09/22 04:53:06;;;;;;;0.10;0.10;;;;;;;2.99;100.00;102669.94;10415858;28;20061;-76
2022/09/22 04:58:12;;;;;;;0.35;0.30;;;;;;;3.00;100.00;102670.84;10400659;28;20053;-75
2022/09/22 05:03:26;;;;;;;0.08;0.08;;;;;;;2.96;100.00;102673.88;10419851;28;20057;-76
2022/09/22 05:08:27;;;;;;;0.00;0.00;;;;;;;2.91;100.00;102680.25;10423844;28;20056;-76
2022/09/22 05:13:29;;;;;;;0.10;0.10;;;;;;;2.83;100.00;102672.84;10443199;28;20512;-76
2022/09/22 05:18:31;;;;;;;0.20;0.08;;;;;;;2.81;100.00;102681.09;10437006;28;20129;-75
2022/09/22 05:23:50;;;;;;;0.28;0.17;;;;;;;2.81;100.00;102679.44;10402772;28;20144;-76
2022/09/22 05:28:52;;;;;;;0.08;0.08;;;;;;;2.82;100.00;102691.41;10423632;28;20092;-76
2022/09/22 05:33:58;;;;;;;0.68;0.38;;;;;;;2.74;100.00;102692.41;10437843;28;20124;-76
2022/09/22 05:39:01;;;;;;;1.42;0.85;;;;;;;2.83;100.00;102689.78;10432608;28;20045;-76
2022/09/22 05:44:02;;;;;;;0.45;0.20;;;;;;;2.97;100.00;102686.75;10427003;28;20523;-77
2022/09/22 05:49:04;;;;;;;0.10;0.10;;;;;;;3.59;100.00;102680.84;10416675;28;20073;-76
2022/09/22 05:54:06;;;;;;;0.00;0.00;;;;;;;3.43;100.00;102674.47;10417941;28;20072;-77
2022/09/22 05:59:07;;;;;;;0.20;0.20;;;;;;;3.76;100.00;102667.81;10411064;28;20051;-76
2022/09/22 06:04:09;;;;;;;0.38;0.38;;;;;;;4.10;100.00;102678.22;10407427;28;20060;-76
2022/09/22 06:09:12;;;;;;;0.10;0.10;;;;;;;5.00;100.00;102684.34;10406845;28;20627;-76
2022/09/22 06:14:14;;;;;;;0.00;0.00;;;;;;;5.31;100.00;102673.91;10404801;28;20056;-77
2022/09/22 06:19:16;;;;;;;0.10;0.10;;;;;;;6.17;100.00;102661.53;10405483;28;20079;-77
2022/09/22 06:24:18;;;;;;;0.05;0.05;;;;;;;6.85;100.00;102624.44;10402253;28;20052;-76
2022/09/22 06:29:21;;;;;;;1.10;0.30;;;;;;;7.53;100.00;102550.34;10404444;28;20113;-77
2022/09/22 06:34:32;;;;;;;0.73;0.43;;;;;;;8.01;100.00;102465.22;10403305;28;20072;-77
2022/09/22 06:39:36;;;;;;;1.13;0.50;;;;;;;8.46;100.00;102445.69;10387354;28;20053;-77
2022/09/22 06:44:40;;;;;;;0.20;0.20;;;;;;;8.71;100.00;102442.03;10397748;28;20081;-76
2022/09/22 06:49:41;;;;;;;0.40;0.40;;;;;;;9.01;100.00;102452.31;10407245;28;20133;-77
2022/09/22 06:54:43;;;;;;;0.38;0.38;;;;;;;9.43;100.00;102442.66;10406958;28;20132;-77
2022/09/22 06:59:48;;;;;;;1.00;0.77;;;;;;;9.31;100.00;102434.28;10406526;28;20074;-76
2022/09/22 07:04:51;;;;;;;0.82;0.82;;;;;;;9.71;100.00;102428.75;10420553;28;20072;-79
2022/09/22 07:09:57;;;;;;;2.15;1.42;;;;;;;10.13;100.00;102423.19;10397669;28;20133;-78
2022/09/22 07:14:59;;;;;;;0.80;0.60;;;;;;;10.00;100.00;102424.25;10394681;28;20071;-77
2022/09/22 07:20:01;;;;;;;0.45;0.45;;;;;;;10.26;100.00;102412.75;10400488;28;20551;-78
2022/09/22 07:25:03;;;;;;;0.13;0.10;;;;;;;10.68;100.00;102409.72;10399548;28;20072;-78
2022/09/22 07:30:05;;;;;;;0.95;0.63;;;;;;;11.25;100.00;102398.66;10399049;28;20557;-78
2022/09/22 07:35:07;;;;;;;0.95;0.32;;;;;;;11.21;100.00;102400.22;10406777;28;20140;-78
2022/09/22 07:40:08;;;;;;;1.17;1.05;;;;;;;11.75;100.00;102388.91;10411241;28;20503;-79
2022/09/22 07:45:11;;;;;;;1.17;0.80;;;;;;;11.89;100.00;102381.75;10405995;28;20045;-78
2022/09/22 07:50:16;;;;;;;0.70;0.60;;;;;;;12.00;100.00;102387.44;10406508;28;20080;-78
2022/09/22 07:55:21;;;;;;;0.40;0.40;;;;;;;12.77;100.00;102374.28;10408491;28;20132;-78
2022/09/22 08:00:31;;;;;;;3.50;0.88;;;;;;;12.93;100.00;102370.59;10406564;28;20091;-79
2022/09/22 08:05:35;;;;;;;4.35;2.55;;;;;;;13.67;100.00;102352.72;10399416;28;20061;-79
2022/09/22 08:10:37;;;;;;;10.32;0.95;;;;;;;13.24;100.00;102357.16;10403964;28;20042;-79
2022/09/22 08:15:40;;;;;;;1.65;1.02;;;;;;;14.20;100.00;102350.25;10409233;28;20037;-78
2022/09/22 08:20:42;;;;;;;1.23;0.55;;;;;;;14.64;100.00;102341.28;10413708;28;20104;-79
2022/09/22 08:25:45;;;;;;;1.10;0.47;;;;;;;15.25;100.00;102331.09;10407511;28;20128;-79
2022/09/22 08:30:47;;;;;;;1.60;1.00;;;;;;;15.45;100.00;102332.53;10408186;28;20037;-79
2022/09/22 08:35:51;;;;;;;0.40;0.40;;;;;;;15.48;100.00;102327.44;10417387;28;20045;-79
2022/09/22 08:41:07;;;;;;;0.65;0.65;;;;;;;15.35;100.00;102325.34;10416125;28;20084;-79
2022/09/22 08:46:08;;;;;;;1.35;0.63;;;;;;;16.18;100.00;102330.22;10413969;28;20497;-78
2022/09/22 08:56:56;;;;;;;0.30;0.30;;;;;;;16.70;100.00;102323.63;10414887;28;20140;-79
2022/09/22 09:02:26;;;;;;;1.23;0.60;;;;;;;16.63;100.00;102317.41;10414971;28;20103;-78
2022/09/22 09:07:46;;;;;;;0.08;0.08;;;;;;;16.40;100.00;102309.94;10408570;28;20057;-79
2022/09/22 09:13:15;;;;;;;1.17;0.60;;;;;;;17.48;100.00;102306.25;10448865;28;20042;-79
2022/09/22 09:18:30;;;;;;;0.43;0.43;;;;;;;17.43;100.00;102308.75;10443002;28;20030;-79
2022/09/22 09:23:43;;;;;;;3.33;0.65;;;;;;;17.83;100.00;102302.56;10449530;28;20344;-78
2022/09/22 09:29:34;;;;;;;0.32;0.25;;;;;;;18.00;100.00;102298.53;10448798;28;20041;-78
2022/09/22 09:34:36;;;;;;;0.80;0.50;;;;;;;18.26;100.00;102299.81;10439564;28;20049;-78
2022/09/22 09:39:40;;;;;;;3.10;0.75;;;;;;;17.94;100.00;102298.41;10417586;28;20057;-79
2022/09/22 09:44:42;;;;;;;1.55;0.60;;;;;;;18.71;100.00;102294.44;10412910;28;20057;-79
2022/09/22 09:49:44;;;;;;;0.40;0.40;;;;;;;19.02;100.00;102283.56;10413929;28;20073;-78
2022/09/22 09:54:47;;;;;;;0.93;0.20;;;;;;;18.53;100.00;102287.22;10411532;28;20438;-78
2022/09/22 10:00:30;;;;;;;2.65;0.70;;;;;;;18.54;100.00;102290.69;10412874;28;20531;-80
2022/09/22 10:05:36;;;;;;;0.65;0.28;;;;;;;18.95;100.00;102277.38;10406882;28;20049;-79
2022/09/22 10:10:39;;;;;;;0.20;0.20;;;;;;;18.49;100.00;102280.19;10411990;28;20052;-79
2022/09/22 10:15:42;;;;;;;0.22;0.20;;;;;;;17.85;100.00;102279.97;10413496;28;20051;-79
2022/09/22 10:20:43;;;;;;;0.80;0.50;;;;;;;19.46;100.00;102269.28;10410823;28;20152;-78
2022/09/22 10:25:45;;;;;;;0.40;0.40;;;;;;;19.43;100.00;102271.84;10412677;28;20080;-78
2022/09/22 10:30:57;;;;;;;0.50;0.50;;;;;;;19.68;100.00;102266.88;10416419;28;20029;-78
2022/09/22 10:36:06;;;;;;;1.48;0.60;;;;;;;19.54;100.00;102266.72;10417551;28;20051;-78
2022/09/22 10:41:22;;;;;;;0.57;0.32;;;;;;;18.65;100.00;102254.31;10409917;28;20072;-79
2022/09/22 10:46:47;;;;;;;1.50;0.20;;;;;;;19.22;100.00;102247.22;10410927;28;20053;-78
2022/09/22 10:52:15;;;;;;;0.22;0.20;;;;;;;19.48;97.57;102244.00;10400083;28;20519;-79
2022/09/22 10:57:27;;;;;;;1.10;0.65;;;;;;;19.74;97.39;102251.25;10399369;28;20128;-79
2022/09/22 11:03:15;;;;;;;0.35;0.20;;;;;;;19.60;89.91;102254.59;10393534;28;20103;-78
2022/09/22 11:13:48;;;;;;;0.43;0.22;;;;;;;20.15;96.94;102234.16;10393190;28;20084;-80
2022/09/22 11:19:12;;;;;;;0.05;0.05;;;;;;;20.41;88.28;102229.09;10408134;28;20072;-79
2022/09/22 11:24:18;;;;;;;0.00;0.00;;;;;;;19.62;84.01;102237.19;10399394;28;20103;-79
2022/09/22 11:29:52;;;;;;;0.45;0.20;;;;;;;19.54;82.47;102222.28;10405181;28;20127;-78
2022/09/22 11:35:21;;;;;;;1.65;0.40;;;;;;;19.97;73.90;102222.69;10407371;28;20482;-78
2022/09/22 11:40:44;;;;;;;0.00;0.00;;;;;;;19.37;77.62;102219.53;10396393;28;20053;-78
2022/09/22 11:46:21;;;;;;;0.03;0.03;;;;;;;19.36;73.11;102218.63;10410326;28;20041;-78
2022/09/22 11:51:55;;;;;;;0.05;0.05;;;;;;;20.09;69.28;102211.44;10414825;28;20045;-77
2022/09/22 11:57:02;;;;;;;0.03;0.03;;;;;;;19.00;62.62;102212.13;10411571;28;20050;-78
2022/09/22 12:02:12;;;;;;;0.98;0.98;;;;;;;19.65;63.84;102205.84;10409873;28;20047;-78
2022/09/22 12:07:20;;;;;;;0.00;0.00;;;;;;;18.93;78.48;102181.59;10411527;28;20412;-78
2022/09/22 12:12:23;;;;;;;0.00;0.00;;;;;;;17.71;74.98;102178.97;10402928;28;20041;-77
2022/09/22 12:17:39;;;;;;;0.05;0.03;;;;;;;19.06;70.05;102182.59;10419012;28;20081;-77
2022/09/22 12:23:15;;;;;;;0.08;0.08;;;;;;;17.59;89.62;102165.75;10404605;28;20120;-78
2022/09/22 12:28:28;;;;;;;0.00;0.00;;;;;;;18.24;72.78;102161.56;10417441;28;20524;-77
2022/09/22 12:33:32;;;;;;;0.10;0.10;;;;;;;18.54;63.49;102157.59;10421369;28;20041;-77
2022/09/22 12:38:38;;;;;;;0.35;0.35;;;;;;;19.09;69.92;102140.88;10406428;28;20073;-78
2022/09/22 12:43:40;;;;;;;0.32;0.10;;;;;;;19.81;65.48;102138.00;10417303;28;20088;-77
2022/09/22 12:48:45;;;;;;;0.00;0.00;;;;;;;18.67;64.66;102141.22;10419374;28;20041;-77
2022/09/22 12:53:47;;;;;;;0.08;0.08;;;;;;;19.61;63.49;102138.72;10408081;28;20537;-79
2022/09/22 12:58:49;;;;;;;0.00;0.00;;;;;;;18.92;61.91;102131.13;10416302;28;20133;-77
2022/09/22 13:03:51;;;;;;;0.10;0.10;;;;;;;19.18;68.38;102131.38;10391832;28;20061;-78
2022/09/22 13:08:53;;;;;;;0.00;0.00;;;;;;;18.00;67.70;102118.63;10422231;28;20071;-78
2022/09/22 13:13:55;;;;;;;0.10;0.00;;;;;;;18.35;74.49;102113.03;10403133;28;20540;-77
2022/09/22 13:18:58;;;;;;;0.55;0.17;;;;;;;18.94;69.35;102108.50;10400083;28;20099;-78
2022/09/22 13:24:02;;;;;;;0.20;0.13;;;;;;;18.67;72.42;102106.44;10412033;28;20084;-77
2022/09/22 13:29:04;;;;;;;0.20;0.05;;;;;;;17.83;78.07;102096.63;10400172;28;20248;-78
2022/09/22 13:34:34;;;;;;;0.20;0.20;;;;;;;17.22;92.29;102095.63;10411957;28;20045;-78
2022/09/22 13:39:40;;;;;;;0.00;0.00;;;;;;;17.91;87.19;102084.53;10420803;28;20045;-78
2022/09/22 13:44:56;;;;;;;0.00;0.00;;;;;;;18.74;81.58;102086.47;10407467;28;20632;-79
2022/09/22 13:50:08;;;;;;;0.75;0.70;;;;;;;19.10;75.36;102093.00;10411978;28;20091;-78
2022/09/22 13:55:32;;;;;;;0.43;0.25;;;;;;;18.42;69.02;102089.63;10414700;28;20132;-78
2022/09/22 14:00:47;;;;;;;0.00;0.00;;;;;;;19.04;73.54;102075.53;10392537;28;20049;-77
2022/09/22 14:06:18;;;;;;;0.03;0.00;;;;;;;18.67;82.02;102075.97;10415283;28;20091;-78
2022/09/22 14:11:23;;;;;;;1.13;0.20;;;;;;;17.98;81.88;102067.31;10413036;28;20124;-78
2022/09/22 14:16:52;;;;;;;0.30;0.28;;;;;;;18.10;80.26;102056.16;10397245;28;20084;-77
2022/09/22 14:22:03;;;;;;;0.10;0.10;;;;;;;18.11;74.76;102060.53;10411982;28;20046;-77
2022/09/22 14:27:06;;;;;;;0.00;0.00;;;;;;;18.27;77.60;102054.66;10415706;28;20045;-76
2022/09/22 14:32:15;;;;;;;0.00;0.00;;;;;;;18.36;81.00;102044.31;10416982;28;20104;-77
2022/09/22 14:37:31;;;;;;;0.00;0.00;;;;;;;17.86;72.21;102049.72;10416602;28;20069;-77
2022/09/22 14:42:33;;;;;;;0.00;0.00;;;;;;;18.06;81.53;102035.25;10412989;28;20034;-76
2022/09/22 14:47:39;;;;;;;0.00;0.00;;;;;;;17.36;85.73;102035.97;10414573;28;20048;-76
2022/09/22 14:53:14;;;;;;;0.30;0.00;;;;;;;17.24;90.24;102036.66;10422646;28;20513;-77
2022/09/22 14:58:20;;;;;;;0.00;0.00;;;;;;;16.96;91.02;102031.00;10405277;28;20512;-77
2022/09/22 15:03:27;;;;;;;0.47;0.43;;;;;;;17.10;95.74;102018.19;10415547;28;20041;-77
2022/09/22 15:08:30;;;;;;;0.38;0.20;;;;;;;17.44;86.40;102010.94;10410574;28;20050;-77
2022/09/22 15:13:40;;;;;;;0.63;0.47;;;;;;;17.65;84.34;102019.91;10408784;28;20423;-77
2022/09/22 15:18:42;;;;;;;0.10;0.10;;;;;;;17.92;78.41;102013.31;10409622;28;20060;-77
2022/09/22 15:23:47;;;;;;;0.28;0.28;;;;;;;17.66;76.61;102015.56;10409150;28;20455;-77
2022/09/22 15:28:50;;;;;;;0.20;0.20;;;;;;;17.59;77.08;102005.03;10410288;28;20053;-76
2022/09/22 15:33:52;;;;;;;0.00;0.00;;;;;;;17.74;84.26;101993.97;10410316;28;20476;-77
2022/09/22 15:38:58;;;;;;;0.00;0.00;;;;;;;17.53;78.25;101997.16;10409717;28;20054;-76
2022/09/22 15:44:01;;;;;;;0.20;0.20;;;;;;;17.53;82.77;101980.66;10395010;28;20102;-77
2022/09/22 15:49:08;;;;;;;0.00;0.00;;;;;;;17.56;81.67;101978.06;10422022;28;20076;-77
2022/09/22 15:54:15;;;;;;;0.00;0.00;;;;;;;17.25;82.88;101975.00;10420707;28;20401;-76
2022/09/22 15:59:20;;;;;;;0.28;0.03;;;;;;;17.15;84.80;101967.94;10416895;28;20100;-78
2022/09/22 16:04:22;;;;;;;0.28;0.20;;;;;;;16.96;86.01;101963.31;10416040;28;20467;-78
2022/09/22 16:09:24;;;;;;;1.05;0.30;;;;;;;17.21;92.97;101958.47;10413213;28;20041;-77
2022/09/22 16:14:25;;;;;;;1.48;0.03;;;;;;;17.00;90.67;101956.44;10398176;28;20399;-78
2022/09/22 16:19:29;;;;;;;0.20;0.20;;;;;;;17.13;89.52;101954.88;10417836;28;20124;-78
2022/09/22 16:24:31;;;;;;;0.05;0.05;;;;;;;16.96;90.30;101957.22;10417184;28;20432;-77
2022/09/22 16:29:36;;;;;;;0.68;0.03;;;;;;;16.99;93.47;101957.28;10414972;28;20052;-77
2022/09/22 16:34:37;;;;;;;0.55;0.32;;;;;;;16.89;94.56;101955.31;10413552;28;20037;-78
2022/09/22 16:39:39;;;;;;;0.00;0.00;;;;;;;16.60;98.52;101951.41;10414174;28;20349;-77
2022/09/22 16:44:41;;;;;;;0.35;0.20;;;;;;;16.45;100.00;101949.38;10409302;28;20080;-77
2022/09/22 16:49:42;;;;;;;0.00;0.00;;;;;;;16.36;100.00;101953.53;10415746;28;20076;-78
2022/09/22 16:54:45;;;;;;;0.00;0.00;;;;;;;16.36;100.00;101954.41;10411825;28;20083;-77
2022/09/22 16:59:46;;;;;;;0.00;0.00;;;;;;;16.29;100.00;101962.94;10417894;28;20074;-78
2022/09/22 17:04:49;;;;;;;0.30;0.10;;;;;;;15.69;100.00;101959.97;10411459;28;20053;-78
2022/09/22 17:09:50;;;;;;;0.00;0.00;;;;;;;15.48;100.00;101961.25;10414749;28;20055;-77
2022/09/22 17:14:51;;;;;;;0.00;0.00;;;;;;;15.08;100.00;101962.91;10415744;28;20128;-78
2022/09/22 17:19:54;;;;;;;0.52;0.25;;;;;;;14.62;100.00;101985.94;10414577;28;20049;-77
2022/09/22 17:24:57;;;;;;;0.00;0.00;;;;;;;14.62;100.00;101965.19;10415337;28;20037;-78
2022/09/22 17:29:58;;;;;;;0.00;0.00;;;;;;;14.22;100.00;101969.31;10419981;28;20093;-77
2022/09/22 17:35:00;;;;;;;0.03;0.03;;;;;;;13.71;100.00;101971.28;10418090;28;20128;-78
2022/09/22 17:40:01;;;;;;;0.00;0.00;;;;;;;13.61;100.00;101970.13;10410224;28;20096;-77
2022/09/22 17:45:06;;;;;;;0.10;0.00;;;;;;;13.31;100.00;101972.63;10422960;28;20411;-78
2022/09/22 17:55:31;;;;;;;0.00;0.00;;;;;;;12.83;100.00;101981.44;10392774;28;20140;-77
2022/09/22 18:00:34;;;;;;;0.00;0.00;;;;;;;12.50;100.00;101988.06;10409880;28;20136;-78
2022/09/22 18:05:37;;;;;;;0.00;0.00;;;;;;;12.12;100.00;102007.34;10398511;28;20135;-77
2022/09/22 18:10:39;;;;;;;0.32;0.22;;;;;;;12.13;100.00;101998.75;10413546;28;20083;-77
2022/09/22 18:15:40;;;;;;;0.00;0.00;;;;;;;11.99;100.00;102004.31;10412409;28;20050;-77
2022/09/22 18:20:42;;;;;;;0.00;0.00;;;;;;;11.50;100.00;102002.38;10411368;28;20037;-78
2022/09/22 18:25:44;;;;;;;0.25;0.17;;;;;;;11.18;100.00;102025.16;10408153;28;20260;-78
2022/09/22 18:30:48;;;;;;;0.10;0.10;;;;;;;11.04;100.00;102022.91;10410858;28;20045;-78
2022/09/22 18:35:49;;;;;;;0.00;0.00;;;;;;;11.00;100.00;102028.72;10414866;28;20045;-78
2022/09/22 18:40:51;;;;;;;0.00;0.00;;;;;;;10.76;100.00;102031.16;10410669;28;20046;-78
2022/09/22 18:45:53;;;;;;;0.13;0.10;;;;;;;10.72;100.00;102032.72;10411770;28;20043;-78
2022/09/22 18:50:54;;;;;;;0.35;0.10;;;;;;;10.63;100.00;102042.59;10422840;28;20048;-78
2022/09/22 18:56:06;;;;;;;0.45;0.22;;;;;;;10.48;100.00;102051.44;10411132;28;20136;-77
2022/09/22 19:01:12;;;;;;;0.30;0.22;;;;;;;10.34;100.00;102047.31;10410280;28;20044;-78
2022/09/22 19:06:14;;;;;;;0.50;0.38;;;;;;;9.97;100.00;102061.06;10411323;28;20107;-78
2022/09/22 19:11:16;;;;;;;0.10;0.10;;;;;;;9.96;100.00;102064.44;10411014;28;20033;-78
2022/09/22 19:16:17;;;;;;;0.38;0.20;;;;;;;9.81;100.00;102065.50;10410477;28;20049;-77
2022/09/22 19:21:19;;;;;;;0.13;0.10;;;;;;;9.81;100.00;102060.34;10406789;28;20056;-78
2022/09/22 19:26:22;;;;;;;0.10;0.10;;;;;;;9.75;100.00;102069.47;10407897;28;20053;-77
2022/09/22 19:31:23;;;;;;;0.40;0.40;;;;;;;9.67;100.00;102066.53;10433346;28;20132;-78
2022/09/22 19:36:25;;;;;;;0.10;0.00;;;;;;;9.45;100.00;102075.78;10438176;28;20053;-77
2022/09/22 19:41:26;;;;;;;0.15;0.15;;;;;;;9.35;100.00;102083.81;10428266;28;20404;-77
2022/09/22 19:46:28;;;;;;;0.90;0.25;;;;;;;9.32;100.00;102078.53;10393100;28;20081;-77
2022/09/22 19:51:30;;;;;;;0.25;0.25;;;;;;;9.26;100.00;102093.69;10400393;28;20072;-77
2022/09/22 19:56:32;;;;;;;0.15;0.15;;;;;;;9.11;100.00;102094.66;10410538;28;20052;-77
2022/09/22 20:01:40;;;;;;;0.10;0.10;;;;;;;8.91;100.00;102092.72;10391481;28;20512;-77
2022/09/22 20:06:42;;;;;;;0.00;0.00;;;;;;;8.92;100.00;102102.22;10408338;28;20046;-77
2022/09/22 20:11:46;;;;;;;0.32;0.30;;;;;;;8.72;100.00;102094.34;10408095;28;20060;-77
2022/09/22 20:16:55;;;;;;;0.70;0.60;;;;;;;8.68;100.00;102107.81;10408628;28;20524;-78
2022/09/22 20:22:17;;;;;;;0.22;0.22;;;;;;;8.60;100.00;102110.00;10415226;28;20515;-77
2022/09/22 20:27:31;;;;;;;0.20;0.20;;;;;;;8.51;100.00;102110.41;10410535;28;20095;-79
2022/09/22 20:32:36;;;;;;;0.28;0.28;;;;;;;8.38;100.00;102102.78;10391897;28;20033;-78
2022/09/22 20:37:38;;;;;;;0.28;0.28;;;;;;;8.29;100.00;102103.19;10416554;28;20489;-78
2022/09/22 20:42:40;;;;;;;0.85;0.55;;;;;;;8.31;100.00;102098.13;10401638;28;20451;-78
2022/09/22 20:47:42;;;;;;;0.75;0.60;;;;;;;8.32;100.00;102107.59;10403198;28;20056;-78
2022/09/22 20:52:44;;;;;;;0.25;0.08;;;;;;;8.23;100.00;102101.16;10413106;28;20409;-78
2022/09/22 20:57:48;;;;;;;0.45;0.35;;;;;;;8.20;100.00;102108.69;10414696;28;20140;-78
2022/09/22 21:02:51;;;;;;;3.53;0.60;;;;;;;7.93;100.00;102106.34;10417109;28;20044;-78
2022/09/22 21:10:33;;;;;;;0.82;0.65;;;;;;;7.99;100.00;102102.38;10441074;28;20126;-79
2022/09/22 21:13:14;;;;;;;0.08;0.08;;;;;;;7.82;100.00;102109.13;10456339;28;20072;-78
2022/09/22 21:18:16;;;;;;;0.25;0.25;;;;;;;7.78;100.00;102113.22;10438383;28;20057;-78
2022/09/22 21:23:19;;;;;;;2.35;1.23;;;;;;;7.71;100.00;102124.78;10446900;28;20037;-78
2022/09/22 21:28:20;;;;;;;0.82;0.38;;;;;;;7.70;100.00;102122.16;10424258;28;20045;-78
2022/09/22 21:33:23;;;;;;;1.65;0.63;;;;;;;7.71;100.00;102122.22;10421632;28;20045;-78
2022/09/22 21:38:25;;;;;;;0.88;0.50;;;;;;;7.72;100.00;102129.13;10426905;28;20079;-78
2022/09/22 21:43:28;;;;;;;0.10;0.10;;;;;;;7.77;100.00;102137.97;10419344;28;20064;-78
2022/09/22 21:48:31;;;;;;;0.73;0.73;;;;;;;7.77;100.00;102122.56;10440213;28;20042;-77
2022/09/22 21:53:34;;;;;;;0.75;0.57;;;;;;;7.65;100.00;102113.28;10397156;28;20060;-78
2022/09/22 21:58:37;;;;;;;0.40;0.20;;;;;;;7.67;100.00;102114.25;10412617;28;20049;-77
2022/09/22 22:03:43;;;;;;;0.85;0.80;;;;;;;7.70;100.00;102088.81;10421265;28;20073;-77
2022/09/22 22:08:50;;;;;;;0.32;0.32;;;;;;;7.56;100.00;102093.13;10412970;28;20063;-78
2022/09/22 22:13:53;;;;;;;0.55;0.30;;;;;;;7.47;100.00;102098.63;10412922;28;20065;-77
2022/09/22 22:18:56;;;;;;;0.40;0.30;;;;;;;7.50;100.00;102092.78;10406362;28;20055;-77
2022/09/22 22:29:20;;;;;;;0.03;0.03;;;;;;;7.53;100.00;102088.72;10419224;28;20141;-78
2022/09/22 22:34:26;;;;;;;0.80;0.63;;;;;;;7.44;100.00;102085.63;10414204;28;20041;-78
2022/09/22 22:39:28;;;;;;;1.30;1.15;;;;;;;7.43;100.00;102173.59;10410576;28;20144;-77
2022/09/22 22:44:30;;;;;;;1.55;0.30;;;;;;;7.39;100.00;102169.09;10412062;28;20049;-77
2022/09/22 22:49:32;;;;;;;0.00;0.00;;;;;;;7.30;100.00;102154.03;10426421;28;20053;-78
2022/09/22 22:54:33;;;;;;;0.50;0.50;;;;;;;7.35;100.00;102146.59;10425206;28;20041;-78
2022/09/22 22:59:35;;;;;;;0.35;0.30;;;;;;;7.26;100.00;102146.97;10411110;28;20092;-78
2022/09/22 23:04:38;;;;;;;1.30;0.38;;;;;;;7.29;100.00;102142.91;10410239;28;20122;-78
2022/09/22 23:09:40;;;;;;;0.40;0.20;;;;;;;7.20;100.00;102144.03;10409756;28;20471;-79
2022/09/22 23:14:41;;;;;;;0.50;0.30;;;;;;;7.15;100.00;102128.38;10411101;28;20117;-78
2022/09/22 23:19:44;;;;;;;0.40;0.25;;;;;;;7.04;100.00;102124.28;10410737;28;20037;-78
2022/09/22 23:24:47;;;;;;;0.75;0.57;;;;;;;7.01;100.00;102129.22;10410620;28;20042;-77
2022/09/22 23:29:49;;;;;;;1.10;0.68;;;;;;;7.08;100.00;102121.13;10393200;28;20425;-78
2022/09/22 23:34:50;;;;;;;0.15;0.10;;;;;;;7.11;100.00;102116.19;10407265;28;20052;-78
2022/09/22 23:39:52;;;;;;;0.25;0.25;;;;;;;7.08;100.00;102111.75;10409934;28;20382;-78
2022/09/22 23:44:53;;;;;;;1.50;0.98;;;;;;;6.96;100.00;102100.75;10410186;28;20033;-78